Aviation Digital Data Service (ADDS)

Output produced by METARs form (1716 UTC 24 June 2019)
found at http://www.aviationweather.gov/metar/data/
 
Forecast for: FAKM (KIMBERLEY/BJ VOR, ZA)
Text: TAF FAKM 240900Z 2410/2418 34005KT CAVOK TX18/2412Z TN12/2418Z
Forecast period: 1000 to 1800 UTC 24 June 2019
Forecast type: FROM: standard forecast or significant change
Winds: from the NNW (340 degrees) at 6 MPH (5 knots; 2.6 m/s)
Visibility: 6 or more miles 10+ km)
Ceiling: unknown
Clouds: missing
Weather: no significant weather forecast for this period